Jeffersonville, Indiana
Current Conditions -  °F | °C
As of 2:53 AM on Monday 24 Nov 2014 (Local Time) from KLOU Reporting Station
Overcast Overcast  
Wind Chill: 61°   Ceiling: 2000
Heat Index: 61°   Visibility: 10mi
Dew Point: 56°   Wind: 13mph
Humidity: 83%   Direction: 200°SSW
Pressure: 29.37"   Gusts: 21mph
Location:  38.28°N, 85.74°W
Report Text: KLOU 240753Z AUTO 20011G18KT 10SM BKN020 OVC030 16/13 A2937 RMK AO2 RAE01B22E35 SLP942 P0001 T01610133
Loading
Personal Weather Stations






























Interactive Weather Map New forecast layout! Learn more

10-Day Weather Forecast

Advertisements
Track Severe Weather on mobile